createdAt,value
2023-02-02T00:02:00.194Z,99878.97
2023-02-02T00:05:00.216Z,99851.22
2023-02-02T00:08:00.240Z,99870.31
2023-02-02T00:11:00.216Z,99873.38
2023-02-02T00:14:00.234Z,99869.56
2023-02-02T00:17:01.216Z,99865.91
2023-02-02T00:20:01.215Z,99860.28
2023-02-02T00:23:01.203Z,99848.59
2023-02-02T00:26:04.202Z,99843.06
2023-02-02T00:29:04.190Z,99842.00
2023-02-02T00:32:05.187Z,99839.22
2023-02-02T00:35:05.220Z,99843.66
2023-02-02T00:38:05.179Z,99816.34
2023-02-02T00:41:05.212Z,99813.16
2023-02-02T00:44:23.199Z,99790.22
2023-02-02T00:47:23.200Z,99796.81
2023-02-02T00:50:26.224Z,99800.22
2023-02-02T00:53:26.210Z,99799.88
2023-02-02T00:56:26.223Z,99802.72
2023-02-02T00:59:26.198Z,99798.34
2023-02-02T01:02:26.231Z,99784.50
2023-02-02T01:05:27.230Z,99804.53
2023-02-02T01:08:27.186Z,99810.25
2023-02-02T01:11:27.227Z,99802.34
2023-02-02T01:14:27.232Z,99798.78
2023-02-02T01:17:27.177Z,99789.97
2023-02-02T01:20:32.251Z,99783.69
2023-02-02T01:23:32.187Z,99789.75
2023-02-02T01:26:32.260Z,99777.19
2023-02-02T01:29:32.177Z,99777.25
2023-02-02T01:32:32.243Z,99763.56
2023-02-02T01:35:32.184Z,99787.16
2023-02-02T01:38:32.185Z,99767.84
2023-02-02T01:41:37.233Z,99769.22
2023-02-02T01:45:11.195Z,99761.59
2023-02-02T01:48:13.181Z,99755.59
2023-02-02T01:51:16.201Z,99751.25
2023-02-02T01:54:17.214Z,99742.66
2023-02-02T01:57:23.185Z,99718.56
2023-02-02T02:00:31.204Z,99728.38
2023-02-02T02:03:33.233Z,99707.62
2023-02-02T02:06:33.197Z,99733.00
2023-02-02T02:09:33.176Z,99728.91
2023-02-02T02:12:33.224Z,99724.56
2023-02-02T02:15:52.219Z,99711.53
2023-02-02T02:19:04.207Z,99698.91
2023-02-02T02:22:28.211Z,99730.03
2023-02-02T02:26:27.240Z,99722.31
2023-02-02T02:29:52.182Z,99720.53
2023-02-02T02:32:58.190Z,99731.53
2023-02-02T02:36:08.192Z,99728.94
2023-02-02T02:39:24.200Z,99725.31
2023-02-02T02:42:31.226Z,99696.63
2023-02-02T02:45:31.187Z,99731.66
2023-02-02T02:48:31.205Z,99719.78
2023-02-02T02:51:53.223Z,99727.31
2023-02-02T02:55:12.201Z,99730.81
2023-02-02T02:58:25.188Z,99730.53
2023-02-02T03:01:45.278Z,99723.91
2023-02-02T03:04:53.221Z,99718.87
2023-02-02T03:08:00.167Z,99677.50
2023-02-02T03:11:01.200Z,99715.03
2023-02-02T03:14:01.181Z,99702.34
2023-02-02T03:17:01.216Z,99692.25
2023-02-02T03:20:01.215Z,99692.25
2023-02-02T03:23:01.263Z,99699.44
2023-02-02T03:26:01.211Z,99704.06
2023-02-02T03:29:02.224Z,99704.28
2023-02-02T03:32:02.184Z,99707.16
2023-02-02T03:35:02.201Z,99680.44
2023-02-02T03:38:02.181Z,99703.13
2023-02-02T03:41:02.159Z,99702.84
2023-02-02T03:44:02.295Z,99687.75
2023-02-02T03:47:02.169Z,99699.28
2023-02-02T03:50:02.246Z,99679.97
2023-02-02T03:53:02.205Z,99690.22
2023-02-02T03:56:02.191Z,99674.53
2023-02-02T03:59:02.211Z,99643.47
2023-02-02T04:02:02.226Z,99675.13
2023-02-02T04:05:02.171Z,99681.78
2023-02-02T04:08:02.233Z,99691.72
2023-02-02T04:11:02.169Z,99671.63
2023-02-02T04:14:02.208Z,99689.47
2023-02-02T04:17:02.206Z,99676.22
2023-02-02T04:20:04.193Z,99695.41
2023-02-02T04:23:04.203Z,99711.94
2023-02-02T04:26:05.177Z,99698.81
2023-02-02T04:29:05.181Z,99692.41
2023-02-02T04:32:05.196Z,99713.03
2023-02-02T04:35:05.220Z,99685.53
2023-02-02T04:38:05.234Z,99705.44
2023-02-02T04:41:05.181Z,99715.12
2023-02-02T04:44:05.173Z,99686.53
2023-02-02T04:47:05.196Z,99682.25
2023-02-02T04:50:05.217Z,99691.47
2023-02-02T04:53:05.197Z,99705.22
2023-02-02T04:56:05.184Z,99714.91
2023-02-02T04:59:07.174Z,99694.75
2023-02-02T05:02:00.683Z,99707.88
2023-02-02T05:05:00.219Z,99689.19
2023-02-02T05:08:00.183Z,99700.38
2023-02-02T05:11:00.205Z,99719.94
2023-02-02T05:14:07.219Z,99725.38
2023-02-02T05:17:07.154Z,99726.22
2023-02-02T05:20:07.181Z,99710.03
2023-02-02T05:23:07.205Z,99729.44
2023-02-02T05:26:08.212Z,99737.75
2023-02-02T05:29:08.178Z,99742.91
2023-02-02T05:32:08.281Z,99713.41
2023-02-02T05:35:08.210Z,99747.44
2023-02-02T05:38:08.189Z,99740.94
2023-02-02T05:41:08.199Z,99775.62
2023-02-02T05:44:08.171Z,99767.56
2023-02-02T05:47:08.181Z,99740.41
2023-02-02T05:50:09.152Z,99755.50
2023-02-02T05:53:09.188Z,99778.78
2023-02-02T05:56:09.197Z,99776.72
2023-02-02T05:59:11.218Z,99788.56
2023-02-02T06:02:11.153Z,99776.47
2023-02-02T06:05:11.221Z,99786.47
2023-02-02T06:08:11.194Z,99789.88
2023-02-02T06:11:11.193Z,99821.94
2023-02-02T06:14:12.167Z,99833.50
2023-02-02T06:17:13.183Z,99846.28
2023-02-02T06:20:13.182Z,99836.84
2023-02-02T06:23:32.804Z,99825.97
2023-02-02T06:26:42.261Z,99830.78
2023-02-02T06:29:42.152Z,99801.41
2023-02-02T06:32:43.192Z,99853.53
2023-02-02T06:35:43.188Z,99862.00
2023-02-02T06:38:44.214Z,99858.28
2023-02-02T06:41:44.275Z,99829.31
2023-02-02T06:44:44.177Z,99868.53
2023-02-02T06:47:46.497Z,99872.81
2023-02-02T06:50:47.295Z,99883.16
2023-02-02T06:53:48.252Z,99864.94
2023-02-02T06:56:49.253Z,99889.09
2023-02-02T06:59:50.265Z,99879.06
2023-02-02T07:02:50.190Z,99887.91
2023-02-02T07:05:51.214Z,99816.63
2023-02-02T07:09:01.829Z,99889.22
2023-02-02T07:12:05.186Z,99889.06
2023-02-02T07:15:06.185Z,99895.09
2023-02-02T07:18:08.323Z,99896.97
2023-02-02T07:21:08.245Z,99842.88
2023-02-02T07:24:11.179Z,99880.09
2023-02-02T07:27:11.220Z,99907.69
2023-02-02T07:30:11.178Z,99891.97
2023-02-02T07:33:11.231Z,99903.41
2023-02-02T07:36:23.375Z,99850.00
2023-02-02T07:39:23.205Z,99911.31
2023-02-02T07:42:26.183Z,99844.12
2023-02-02T07:45:27.879Z,99890.91
2023-02-02T07:48:29.149Z,99919.28
2023-02-02T07:51:31.167Z,99920.13
2023-02-02T07:54:31.169Z,99917.06
2023-02-02T07:57:33.433Z,99932.13
2023-02-02T08:00:38.204Z,99930.44
2023-02-02T08:03:38.159Z,99931.97
2023-02-02T08:06:58.274Z,99927.25
2023-02-02T08:10:06.326Z,99927.72
2023-02-02T08:13:07.329Z,99932.59
2023-02-02T08:16:07.325Z,99933.97
2023-02-02T08:19:07.160Z,99942.97
2023-02-02T08:22:07.209Z,99943.88
2023-02-02T08:25:07.189Z,99945.69
2023-02-02T08:28:09.202Z,99928.00
2023-02-02T08:31:09.275Z,99936.09
2023-02-02T08:34:09.216Z,99950.88
2023-02-02T08:37:16.225Z,99958.50
2023-02-02T08:40:16.213Z,99959.22
2023-02-02T08:43:17.228Z,99935.62
2023-02-02T08:46:18.451Z,99953.56
2023-02-02T08:49:18.184Z,99943.06
2023-02-02T08:52:18.173Z,99940.22
2023-02-02T08:55:18.195Z,99938.41
2023-02-02T08:58:18.196Z,99946.56
2023-02-02T09:04:17.184Z,99951.75
2023-02-02T09:06:56.322Z,99952.47
2023-02-02T09:09:42.214Z,99948.69
2023-02-02T09:12:21.236Z,99944.44
2023-02-02T09:15:07.200Z,99951.94
2023-02-02T09:17:53.174Z,99957.63
2023-02-02T09:20:53.176Z,99934.66
2023-02-02T09:23:55.154Z,99961.47
2023-02-02T09:26:56.328Z,99966.75
2023-02-02T09:29:56.196Z,99960.81
2023-02-02T09:32:57.321Z,99959.84
2023-02-02T09:35:57.183Z,99966.72
2023-02-02T09:38:58.203Z,99967.47
2023-02-02T09:42:18.188Z,99967.50
2023-02-02T09:45:21.168Z,99954.34
2023-02-02T09:48:31.169Z,99972.69
2023-02-02T09:51:35.187Z,99975.47
2023-02-02T09:54:44.793Z,99976.25
2023-02-02T09:57:52.202Z,99971.94
2023-02-02T10:00:56.209Z,99979.28
2023-02-02T10:04:11.254Z,99980.88
2023-02-02T10:07:15.184Z,99968.94
2023-02-02T10:10:24.156Z,99959.50
2023-02-02T10:13:34.231Z,99974.69
2023-02-02T10:16:35.164Z,99975.84
2023-02-02T10:19:38.214Z,99981.44
2023-02-02T10:22:42.172Z,99985.25
2023-02-02T10:25:42.180Z,99987.28
2023-02-02T10:29:30.886Z,99977.97
2023-02-02T10:32:39.213Z,99972.88
2023-02-02T10:35:59.178Z,99962.16
2023-02-02T10:39:14.217Z,99976.94
2023-02-02T10:43:20.206Z,99976.41
2023-02-02T10:46:25.393Z,99976.13
2023-02-02T10:49:47.208Z,99971.41
2023-02-02T10:52:54.228Z,99963.84
2023-02-02T10:56:24.201Z,99938.47
2023-02-02T10:59:29.220Z,99972.69
2023-02-02T11:02:29.204Z,99945.78
2023-02-02T11:05:56.212Z,99950.22
2023-02-02T11:09:05.224Z,99936.78
2023-02-02T11:12:23.229Z,99925.53
2023-02-02T11:15:42.239Z,99943.22
2023-02-02T11:18:44.332Z,99929.19
2023-02-02T11:21:48.218Z,99949.91
2023-02-02T11:24:58.210Z,99926.75
2023-02-02T11:27:58.198Z,99937.28
2023-02-02T11:31:01.358Z,99943.22
2023-02-02T11:34:42.164Z,99926.97
2023-02-02T11:37:42.201Z,99929.88
2023-02-02T11:40:51.378Z,99915.31
2023-02-02T11:44:01.202Z,99906.38
2023-02-02T11:47:01.228Z,99923.72
2023-02-02T11:50:02.505Z,99932.16
2023-02-02T11:53:05.263Z,99922.69
2023-02-02T11:56:05.220Z,99925.81
2023-02-02T11:59:07.178Z,99911.69
2023-02-02T12:02:30.197Z,99914.50
2023-02-02T12:05:33.288Z,99919.59
2023-02-02T12:08:33.157Z,99919.03
2023-02-02T12:11:52.374Z,99907.41
2023-02-02T12:15:26.225Z,99872.06
2023-02-02T12:18:49.217Z,99906.84
2023-02-02T12:22:15.246Z,99899.50
2023-02-02T12:25:31.193Z,99898.28
2023-02-02T12:29:02.251Z,99885.28
2023-02-02T12:32:28.209Z,99879.53
2023-02-02T12:36:07.282Z,99881.34
2023-02-02T12:39:24.173Z,99879.50
2023-02-02T12:42:50.208Z,99887.47
2023-02-02T12:45:59.190Z,99881.28
2023-02-02T12:49:27.235Z,99890.56
2023-02-02T12:52:45.209Z,99885.88
2023-02-02T12:55:57.209Z,99886.28
2023-02-02T12:59:17.188Z,99887.25
2023-02-02T13:02:31.263Z,99873.16
2023-02-02T13:05:55.222Z,99887.13
2023-02-02T13:09:11.216Z,99883.38
2023-02-02T13:12:37.187Z,99887.75
2023-02-02T13:15:43.248Z,99899.88
2023-02-02T13:18:46.184Z,99905.06
2023-02-02T13:21:46.228Z,99901.94
2023-02-02T13:24:49.223Z,99906.16
2023-02-02T13:27:50.175Z,99899.78
2023-02-02T13:30:53.344Z,99883.34
2023-02-02T13:33:56.251Z,99909.34
2023-02-02T13:36:59.162Z,99909.53
2023-02-02T13:40:31.173Z,99910.19
2023-02-02T13:43:57.228Z,99911.38
2023-02-02T13:47:04.233Z,99916.66
2023-02-02T13:50:08.229Z,99900.81
2023-02-02T13:53:42.229Z,99911.38
2023-02-02T13:57:13.332Z,99898.91
2023-02-02T14:00:32.213Z,99911.63
2023-02-02T14:03:56.202Z,99921.19
2023-02-02T14:07:25.178Z,99924.94
2023-02-02T14:11:13.170Z,99932.84
2023-02-02T14:14:41.205Z,99920.84
2023-02-02T14:17:47.212Z,99918.63
2023-02-02T14:20:55.161Z,99927.94
2023-02-02T14:24:04.190Z,99908.72
2023-02-02T14:27:35.380Z,99912.00
2023-02-02T14:30:39.256Z,99884.53
2023-02-02T14:33:41.508Z,99932.44
2023-02-02T14:36:42.182Z,99938.84
2023-02-02T14:39:44.173Z,99943.13
2023-02-02T14:43:11.177Z,99950.88
2023-02-02T14:46:21.264Z,99952.91
2023-02-02T14:49:26.393Z,99953.19
2023-02-02T14:52:35.243Z,99929.12
2023-02-02T14:55:35.221Z,99957.03
2023-02-02T14:59:00.280Z,99958.97
2023-02-02T15:02:30.220Z,99966.12
2023-02-02T15:05:45.179Z,99925.63
2023-02-02T15:08:45.199Z,99976.09
2023-02-02T15:12:13.183Z,99980.81
2023-02-02T15:15:30.234Z,99977.31
2023-02-02T15:18:35.201Z,99984.44
2023-02-02T15:21:35.219Z,99979.91
2023-02-02T15:24:38.195Z,99971.72
2023-02-02T15:27:48.025Z,99982.22
2023-02-02T15:30:58.262Z,99978.22
2023-02-02T15:34:01.244Z,99992.63
2023-02-02T15:37:03.171Z,99983.41
2023-02-02T15:40:06.207Z,99997.94
2023-02-02T15:43:20.167Z,100014.28
2023-02-02T15:46:30.215Z,100024.94
2023-02-02T15:49:36.206Z,100026.38
2023-02-02T15:52:46.461Z,100022.81
2023-02-02T15:55:48.195Z,100031.06
2023-02-02T15:58:45.261Z,100032.44
2023-02-02T16:01:47.202Z,100038.66
2023-02-02T16:04:56.204Z,100025.47
2023-02-02T16:08:05.052Z,100005.19
2023-02-02T16:11:15.178Z,100041.63
2023-02-02T16:14:20.183Z,100041.63
2023-02-02T16:17:43.228Z,100054.88
2023-02-02T16:20:46.187Z,100068.16
2023-02-02T16:23:48.194Z,100062.09
2023-02-02T16:26:48.267Z,100069.16
2023-02-02T16:29:48.192Z,100039.25
2023-02-02T16:32:51.294Z,100068.94
2023-02-02T16:35:52.181Z,100081.41
2023-02-02T16:38:52.200Z,100087.38
2023-02-02T16:41:55.302Z,100085.69
2023-02-02T16:44:56.235Z,100096.84
2023-02-02T16:47:56.239Z,100100.00
2023-02-02T16:51:10.166Z,100108.91
2023-02-02T16:54:18.219Z,100110.44
2023-02-02T16:57:18.199Z,100119.81
2023-02-02T17:00:20.182Z,100118.81
2023-02-02T17:03:24.166Z,100130.47
2023-02-02T17:06:24.170Z,100126.28
2023-02-02T17:09:40.323Z,100135.87
2023-02-02T17:12:40.184Z,100116.97
2023-02-02T17:15:42.173Z,100146.63
2023-02-02T17:18:42.238Z,100153.66
2023-02-02T17:21:42.241Z,100152.16
2023-02-02T17:24:42.189Z,100164.38
2023-02-02T17:27:45.206Z,100161.19
2023-02-02T17:30:45.282Z,100175.09
2023-02-02T17:33:47.179Z,100163.50
2023-02-02T17:36:47.181Z,100180.84
2023-02-02T17:39:47.168Z,100191.31
2023-02-02T17:42:48.210Z,100188.88
2023-02-02T17:45:49.241Z,100194.31
2023-02-02T17:48:49.207Z,100196.47
2023-02-02T17:51:50.222Z,100187.69
2023-02-02T17:54:50.197Z,100202.41
2023-02-02T17:57:50.166Z,100206.84
2023-02-02T18:00:52.180Z,100200.59
2023-02-02T18:03:53.211Z,100209.34
2023-02-02T18:06:53.200Z,100212.94
2023-02-02T18:09:53.185Z,100217.38
2023-02-02T18:12:53.165Z,100223.84
2023-02-02T18:15:53.340Z,100230.28
2023-02-02T18:18:53.175Z,100227.97
2023-02-02T18:21:53.219Z,100216.63
2023-02-02T18:24:54.202Z,100229.69
2023-02-02T18:27:57.387Z,100235.72
2023-02-02T18:30:57.261Z,100230.47
2023-02-02T18:33:57.217Z,100242.69
2023-02-02T18:36:57.211Z,100251.84
2023-02-02T18:39:57.178Z,100235.88
2023-02-02T18:42:57.196Z,100264.16
2023-02-02T18:45:57.164Z,100249.53
2023-02-02T18:48:57.185Z,100271.97
2023-02-02T18:51:57.213Z,100241.13
2023-02-02T18:54:57.187Z,100275.72
2023-02-02T18:57:57.167Z,100280.00
2023-02-02T19:00:57.215Z,100281.13
2023-02-02T19:04:03.275Z,100284.09
2023-02-02T19:07:21.182Z,100275.47
2023-02-02T19:10:24.206Z,100273.53
2023-02-02T19:13:32.223Z,100282.69
2023-02-02T19:16:44.183Z,100295.94
2023-02-02T19:19:48.218Z,100308.41
2023-02-02T19:22:49.189Z,100284.31
2023-02-02T19:25:51.280Z,100312.13
2023-02-02T19:28:53.176Z,100324.34
2023-02-02T19:31:53.252Z,100309.00
2023-02-02T19:34:53.233Z,100322.97
2023-02-02T19:37:54.198Z,100302.88
2023-02-02T19:40:55.212Z,100306.00
2023-02-02T19:43:55.162Z,100336.81
2023-02-02T19:46:57.260Z,100335.59
2023-02-02T19:49:57.204Z,100326.56
2023-02-02T19:52:57.178Z,100332.50
2023-02-02T19:55:57.183Z,100354.09
2023-02-02T19:58:57.211Z,100336.72
2023-02-02T20:01:57.170Z,100353.19
2023-02-02T20:04:57.216Z,100392.50
2023-02-02T20:07:57.209Z,100382.00
2023-02-02T20:10:57.233Z,100377.03
2023-02-02T20:14:00.213Z,100379.69
2023-02-02T20:17:10.212Z,100403.28
2023-02-02T20:20:10.194Z,100417.09
2023-02-02T20:23:11.203Z,100426.16
2023-02-02T20:26:12.202Z,100399.84
2023-02-02T20:29:14.162Z,100388.09
2023-02-02T20:32:14.264Z,100387.56
2023-02-02T20:35:14.163Z,100391.91
2023-02-02T20:38:15.186Z,100418.81
2023-02-02T20:41:15.203Z,100430.84
2023-02-02T20:44:15.213Z,100417.94
2023-02-02T20:47:16.219Z,100435.44
2023-02-02T20:50:16.169Z,100433.16
2023-02-02T20:53:16.202Z,100447.69
2023-02-02T20:56:16.230Z,100448.94
2023-02-02T20:59:16.211Z,100436.97
2023-02-02T21:02:17.216Z,100444.91
2023-02-02T21:05:17.168Z,100472.56
2023-02-02T21:08:17.157Z,100449.97
2023-02-02T21:11:17.170Z,100466.59
2023-02-02T21:14:17.204Z,100489.53
2023-02-02T21:17:17.190Z,100485.88
2023-02-02T21:20:17.166Z,100478.56
2023-02-02T21:23:17.160Z,100497.09
2023-02-02T21:29:22.192Z,100490.63
2023-02-02T21:32:22.168Z,100507.03
2023-02-02T21:35:22.193Z,100496.50
2023-02-02T21:38:27.209Z,100494.19
2023-02-02T21:41:28.164Z,100524.81
2023-02-02T21:44:30.203Z,100513.28
2023-02-02T21:47:49.168Z,100525.13
2023-02-02T21:50:51.175Z,100536.81
2023-02-02T21:53:51.160Z,100544.41
2023-02-02T21:56:52.229Z,100542.34
2023-02-02T21:59:53.177Z,100540.34
2023-02-02T22:03:00.337Z,100571.19
2023-02-02T22:06:00.166Z,100579.94
2023-02-02T22:09:01.220Z,100577.13
2023-02-02T22:12:09.160Z,100563.91
2023-02-02T22:15:15.216Z,100592.72
2023-02-02T22:18:26.187Z,100593.37
2023-02-02T22:21:28.177Z,100598.53
2023-02-02T22:24:28.182Z,100575.06
2023-02-02T22:27:34.159Z,100594.62
2023-02-02T22:30:53.243Z,100596.37
2023-02-02T22:33:53.212Z,100599.69
2023-02-02T22:36:53.169Z,100602.47
2023-02-02T22:39:53.187Z,100590.88
2023-02-02T22:42:53.198Z,100617.28
2023-02-02T22:45:53.295Z,100600.25
2023-02-02T22:48:53.218Z,100604.34
2023-02-02T22:51:54.323Z,100616.06
2023-02-02T22:54:54.160Z,100614.00
2023-02-02T22:57:54.136Z,100625.66
2023-02-02T23:00:54.195Z,100634.47
2023-02-02T23:03:55.228Z,100628.22
2023-02-02T23:06:55.203Z,100619.97
2023-02-02T23:09:55.198Z,100635.25
2023-02-02T23:12:56.161Z,100647.88
2023-02-02T23:15:56.247Z,100631.47
2023-02-02T23:18:56.185Z,100629.47
2023-02-02T23:21:56.205Z,100660.03
2023-02-02T23:24:56.160Z,100627.06
2023-02-02T23:27:56.187Z,100681.25
2023-02-02T23:30:56.250Z,100689.94
2023-02-02T23:33:56.214Z,100696.78
2023-02-02T23:36:56.154Z,100690.59
2023-02-02T23:39:56.154Z,100698.78
2023-02-02T23:42:56.150Z,100692.66
2023-02-02T23:45:56.203Z,100677.53
2023-02-02T23:48:56.187Z,100700.44
2023-02-02T23:51:49.266Z,100687.16
2023-02-02T23:54:49.144Z,100707.03
2023-02-02T23:57:49.156Z,100697.28
